Time;durP1;ratioP1;P1;durP2;ratioP2;P2;SDS_P1;SDS_P2;PMS_P1;PMS_P2;Temp;Humidity;BMP_temperature;BMP_pressure;BME280_temperature;BME280_humidity;BME280_pressure;Samples;Min_cycle;Max_cycle;Signal;HPM_P1;HPM_P2
2022/10/01 00:01:47;;;;;;;15.65;9.52;;;12.60;99.90;;;;;;5099347;28;20093;-72
2022/10/01 00:04:13;;;;;;;10.90;8.25;;;12.60;99.90;;;;;;5098980;28;20113;-73
2022/10/01 00:06:38;;;;;;;15.27;9.82;;;12.70;99.90;;;;;;5099004;28;20421;-72
2022/10/01 00:09:04;;;;;;;13.35;8.68;;;12.60;99.90;;;;;;5098219;28;20048;-72
2022/10/01 00:11:30;;;;;;;11.00;8.45;;;12.50;99.90;;;;;;5097912;28;20082;-72
2022/10/01 00:13:56;;;;;;;14.93;10.80;;;12.50;99.90;;;;;;5098152;28;20345;-72
2022/10/01 00:16:24;;;;;;;14.60;8.93;;;12.60;99.90;;;;;;5098887;28;20433;-72
2022/10/01 00:18:54;;;;;;;14.43;9.48;;;12.50;99.90;;;;;;5098869;28;20078;-72
2022/10/01 00:21:22;;;;;;;17.55;11.07;;;12.40;99.90;;;;;;5097878;28;20345;-72
2022/10/01 00:23:54;;;;;;;14.18;11.02;;;12.20;99.90;;;;;;5097975;28;20066;-72
2022/10/01 00:26:22;;;;;;;17.70;10.27;;;12.30;99.90;;;;;;5098970;28;20043;-72
2022/10/01 00:28:53;;;;;;;15.13;10.23;;;12.30;99.90;;;;;;5098632;28;20036;-72
2022/10/01 00:31:19;;;;;;;19.48;12.30;;;12.30;99.90;;;;;;5098907;28;20036;-72
2022/10/01 00:33:44;;;;;;;18.38;12.50;;;12.40;99.90;;;;;;5098137;28;20059;-72
2022/10/01 00:36:10;;;;;;;15.40;10.48;;;12.30;99.90;;;;;;5098768;28;20413;-72
2022/10/01 00:38:39;;;;;;;20.60;11.93;;;12.40;99.90;;;;;;5080910;28;20054;-72
2022/10/01 00:41:06;;;;;;;15.15;11.77;;;12.30;99.90;;;;;;5096198;28;20097;-72
2022/10/01 00:43:35;;;;;;;15.73;11.55;;;12.40;99.90;;;;;;5098614;28;20043;-72
2022/10/01 00:46:11;;;;;;;15.80;11.07;;;12.40;99.90;;;;;;5098390;28;20056;-72
2022/10/01 00:48:44;;;;;;;15.98;11.57;;;12.30;99.90;;;;;;5098288;28;20468;-72
2022/10/01 00:51:12;;;;;;;15.93;11.43;;;12.30;99.90;;;;;;5098197;28;20452;-72
2022/10/01 00:53:38;;;;;;;19.92;13.45;;;12.20;99.90;;;;;;5098165;28;20193;-72
2022/10/01 00:56:05;;;;;;;18.10;12.52;;;12.20;99.90;;;;;;5097429;28;20119;-72
2022/10/01 00:58:32;;;;;;;19.08;12.75;;;12.20;99.90;;;;;;5098330;28;20040;-72
2022/10/01 01:00:58;;;;;;;23.17;14.70;;;12.00;99.90;;;;;;5131020;27;20044;-72
2022/10/01 01:03:25;;;;;;;18.00;12.18;;;12.10;99.90;;;;;;5097787;28;20089;-72
2022/10/01 01:05:50;;;;;;;19.85;13.10;;;12.00;99.90;;;;;;5098231;28;20042;-72
2022/10/01 01:08:17;;;;;;;16.50;11.98;;;12.10;99.90;;;;;;5097845;28;20036;-72
2022/10/01 01:11:00;;;;;;;21.05;12.80;;;12.00;99.90;;;;;;5098132;28;20070;-72
2022/10/01 01:13:33;;;;;;;21.00;12.68;;;12.00;99.90;;;;;;5098075;28;20113;-72
2022/10/01 01:16:13;;;;;;;16.75;11.02;;;12.00;99.90;;;;;;5096706;28;20047;-72
2022/10/01 01:19:06;;;;;;;15.02;12.02;;;12.00;99.90;;;;;;5096705;28;20048;-72
2022/10/01 01:21:33;;;;;;;18.13;12.63;;;12.10;99.90;;;;;;5097597;28;20433;-72
2022/10/01 01:24:22;;;;;;;17.75;12.27;;;12.00;99.90;;;;;;5096818;28;20044;-72
2022/10/01 01:27:22;;;;;;;19.42;13.30;;;11.90;99.90;;;;;;5096644;28;20051;-73
2022/10/01 01:30:00;;;;;;;14.48;11.10;;;12.00;99.90;;;;;;5097843;28;20040;-72
2022/10/01 01:32:38;;;;;;;17.23;11.95;;;11.90;99.90;;;;;;5097776;28;20371;-72
2022/10/01 01:35:07;;;;;;;18.00;11.40;;;11.90;99.90;;;;;;5096978;28;20489;-73
2022/10/01 01:37:41;;;;;;;14.82;11.23;;;11.80;99.90;;;;;;5097594;28;20036;-72
2022/10/01 01:40:10;;;;;;;20.13;13.68;;;11.80;99.90;;;;;;5097638;28;20105;-72
2022/10/01 01:42:39;;;;;;;20.90;13.32;;;12.00;99.90;;;;;;5097172;28;20433;-72
2022/10/01 01:45:10;;;;;;;23.05;12.77;;;11.90;99.90;;;;;;5096468;28;20097;-72
2022/10/01 01:47:40;;;;;;;17.52;13.13;;;12.00;99.90;;;;;;5097018;28;20051;-73
2022/10/01 01:50:07;;;;;;;18.02;12.93;;;12.10;99.90;;;;;;5097107;28;20036;-73
2022/10/01 01:52:33;;;;;;;19.63;11.15;;;12.10;99.90;;;;;;5096762;28;20441;-73
2022/10/01 01:55:04;;;;;;;14.80;11.25;;;12.00;99.90;;;;;;5097361;28;20364;-72
2022/10/01 01:57:30;;;;;;;17.10;12.55;;;11.90;99.90;;;;;;5097344;28;20050;-72
2022/10/01 01:59:55;;;;;;;16.55;11.50;;;12.00;99.90;;;;;;5097206;28;20040;-72
2022/10/01 02:02:31;;;;;;;18.08;12.63;;;12.00;99.90;;;;;;5078970;28;20044;-73
2022/10/01 02:04:59;;;;;;;;;;;12.10;99.90;;;;;;5097041;28;20463;-73
2022/10/01 02:07:27;;;;;;;21.60;13.23;;;12.10;99.90;;;;;;5097185;28;20239;-73
2022/10/01 02:10:11;;;;;;;21.48;13.52;;;12.00;99.90;;;;;;5096751;28;20040;-73
2022/10/01 02:12:40;;;;;;;16.45;10.73;;;12.00;99.90;;;;;;5096788;28;20433;-73
2022/10/01 02:15:19;;;;;;;15.02;10.25;;;12.00;99.90;;;;;;5097037;28;20314;-73
2022/10/01 02:17:51;;;;;;;19.90;12.57;;;11.80;99.90;;;;;;5097061;28;20055;-73
2022/10/01 02:20:28;;;;;;;13.20;9.98;;;11.80;99.90;;;;;;5095696;28;20055;-73
2022/10/01 02:22:59;;;;;;;16.33;11.20;;;11.90;99.90;;;;;;5096882;28;20048;-74
2022/10/01 02:25:31;;;;;;;14.38;10.65;;;11.90;99.90;;;;;;5095634;28;20417;-73
2022/10/01 02:28:06;;;;;;;13.52;9.65;;;12.00;99.90;;;;;;5096948;28;20115;-73
2022/10/01 02:30:34;;;;;;;13.15;9.13;;;12.00;99.90;;;;;;5096909;28;20090;-73
2022/10/01 02:33:02;;;;;;;15.40;10.38;;;12.00;99.90;;;;;;5095513;28;20084;-73
2022/10/01 02:35:31;;;;;;;12.63;8.80;;;12.20;99.90;;;;;;5096142;28;20164;-73
2022/10/01 02:38:00;;;;;;;12.35;9.25;;;12.20;99.90;;;;;;5095746;28;20044;-73
2022/10/01 02:40:29;;;;;;;13.57;10.38;;;12.20;99.90;;;;;;5096784;28;20078;-73
2022/10/01 02:43:00;;;;;;;15.32;10.50;;;12.30;99.90;;;;;;5096434;28;20360;-73
2022/10/01 02:45:29;;;;;;;14.43;10.38;;;12.40;99.90;;;;;;5096281;28;20089;-74
2022/10/01 02:48:04;;;;;;;12.65;8.95;;;12.30;99.90;;;;;;5095199;28;20048;-73
2022/10/01 02:50:42;;;;;;;11.70;8.15;;;12.20;99.90;;;;;;5095439;28;20048;-73
2022/10/01 02:53:21;;;;;;;9.52;7.30;;;12.20;99.90;;;;;;5096460;28;20040;-73
2022/10/01 02:55:49;;;;;;;12.65;7.95;;;12.00;99.90;;;;;;5096701;28;20075;-73
2022/10/01 02:58:17;;;;;;;10.02;6.72;;;12.10;99.90;;;;;;5096414;28;20036;-73
2022/10/01 03:00:43;;;;;;;10.18;7.50;;;12.10;99.90;;;;;;5096372;28;20059;-73
2022/10/01 03:03:09;;;;;;;12.00;7.43;;;12.10;99.90;;;;;;5096689;28;20425;-74
2022/10/01 03:05:34;;;;;;;11.45;8.20;;;12.10;99.90;;;;;;5100280;28;20040;-73
2022/10/01 03:08:00;;;;;;;11.57;7.60;;;12.20;99.90;;;;;;5100457;28;20036;-73
2022/10/01 03:10:26;;;;;;;10.02;7.20;;;12.30;99.90;;;;;;5100482;28;20102;-73
2022/10/01 03:12:52;;;;;;;10.85;7.47;;;12.20;99.90;;;;;;5100100;28;20067;-74
2022/10/01 03:15:18;;;;;;;10.82;7.47;;;12.20;99.90;;;;;;5100305;28;20036;-74
2022/10/01 03:17:44;;;;;;;8.70;6.78;;;12.20;99.90;;;;;;5098972;28;20050;-73
2022/10/01 03:20:11;;;;;;;9.32;6.97;;;12.10;99.90;;;;;;5099297;28;20044;-73
2022/10/01 03:22:37;;;;;;;10.88;7.78;;;12.10;99.90;;;;;;5099873;28;20037;-73
2022/10/01 03:25:03;;;;;;;10.98;6.72;;;12.30;99.90;;;;;;5099895;28;20124;-73
2022/10/01 03:27:29;;;;;;;8.00;6.22;;;12.20;99.90;;;;;;5100148;28;20040;-73
2022/10/01 03:29:54;;;;;;;9.75;7.10;;;12.20;99.90;;;;;;5100074;28;20371;-73
2022/10/01 03:32:20;;;;;;;10.40;6.22;;;12.20;99.90;;;;;;5098957;28;20047;-73
2022/10/01 03:34:46;;;;;;;11.60;7.53;;;12.30;99.90;;;;;;5099591;28;20083;-74
2022/10/01 03:37:12;;;;;;;11.43;7.20;;;12.30;99.90;;;;;;5099888;28;20047;-73
2022/10/01 03:39:37;;;;;;;7.95;6.07;;;12.40;99.90;;;;;;5099613;28;20105;-74
2022/10/01 03:42:04;;;;;;;7.82;5.15;;;12.30;99.90;;;;;;5099818;28;20069;-73
2022/10/01 03:44:30;;;;;;;7.57;5.50;;;12.30;99.90;;;;;;5099798;28;20083;-74
2022/10/01 03:46:56;;;;;;;5.45;4.68;;;12.40;99.90;;;;;;5132428;27;20052;-73
2022/10/01 03:49:22;;;;;;;7.57;5.68;;;12.30;99.90;;;;;;5099718;28;20040;-74
2022/10/01 03:51:48;;;;;;;5.88;4.35;;;12.30;99.90;;;;;;5099337;28;20474;-74
2022/10/01 03:54:14;;;;;;;10.00;3.90;;;12.20;99.90;;;;;;5098316;28;20047;-74
2022/10/01 03:56:41;;;;;;;5.22;3.97;;;12.20;99.90;;;;;;5099558;28;20048;-73
2022/10/01 03:59:11;;;;;;;5.57;4.00;;;12.20;99.90;;;;;;5099562;28;20119;-73
2022/10/01 04:01:38;;;;;;;6.95;3.83;;;12.30;99.90;;;;;;5099180;28;20052;-74
2022/10/01 04:04:05;;;;;;;8.07;3.97;;;12.20;99.90;;;;;;5097980;28;20059;-74
2022/10/01 04:06:30;;;;;;;3.40;2.95;;;12.30;99.90;;;;;;5098346;28;20306;-74
2022/10/01 04:08:56;;;;;;;7.05;3.60;;;12.30;99.90;;;;;;5098028;28;20093;-74
2022/10/01 04:11:23;;;;;;;5.68;3.40;;;12.40;99.90;;;;;;5098217;28;20044;-74
2022/10/01 04:13:49;;;;;;;5.60;3.85;;;12.30;99.90;;;;;;5098025;28;20127;-74
2022/10/01 04:16:14;;;;;;;5.68;3.25;;;12.40;99.90;;;;;;5098839;28;20426;-74
2022/10/01 04:18:41;;;;;;;3.50;2.50;;;12.40;99.90;;;;;;5099101;28;20123;-74
2022/10/01 04:21:06;;;;;;;5.50;3.13;;;12.50;99.90;;;;;;5099037;28;20036;-74
2022/10/01 04:23:32;;;;;;;4.47;2.78;;;12.50;99.90;;;;;;5099026;28;20320;-74
2022/10/01 04:26:01;;;;;;;4.82;2.90;;;12.50;99.90;;;;;;5099005;28;20436;-74
2022/10/01 04:28:27;;;;;;;5.05;2.80;;;12.40;99.90;;;;;;5098728;28;20044;-74
2022/10/01 04:31:23;;;;;;;4.35;2.95;;;12.50;99.90;;;;;;5098618;28;20455;-74
2022/10/01 04:33:39;;;;;;;4.35;3.17;;;12.60;99.90;;;;;;5098101;28;20048;-74
2022/10/01 04:36:05;;;;;;;4.43;3.33;;;12.60;99.90;;;;;;5080648;28;20071;-74
2022/10/01 04:38:31;;;;;;;5.70;3.60;;;12.50;99.90;;;;;;5098752;28;20068;-74
2022/10/01 04:40:56;;;;;;;6.00;3.72;;;12.50;99.90;;;;;;5097392;28;20052;-74
2022/10/01 04:43:22;;;;;;;4.85;3.78;;;12.40;99.90;;;;;;5080403;28;20040;-74
2022/10/01 04:45:48;;;;;;;4.05;2.75;;;12.50;99.90;;;;;;5098600;28;20063;-74
2022/10/01 04:48:13;;;;;;;7.38;4.47;;;12.60;99.90;;;;;;5098101;28;20368;-74
2022/10/01 04:50:39;;;;;;;3.85;3.10;;;12.60;99.90;;;;;;5097276;28;20071;-74
2022/10/01 04:53:05;;;;;;;9.02;3.78;;;12.80;99.90;;;;;;5097447;28;20059;-74
2022/10/01 04:55:31;;;;;;;4.30;3.40;;;12.80;99.90;;;;;;5097134;28;20040;-74
2022/10/01 04:57:56;;;;;;;4.55;3.65;;;12.60;99.90;;;;;;5096744;28;20043;-74
2022/10/01 05:00:24;;;;;;;6.82;5.20;;;12.60;99.90;;;;;;5096735;28;20047;-74
2022/10/01 05:02:51;;;;;;;4.93;3.53;;;12.60;99.90;;;;;;5097874;28;20341;-74
2022/10/01 05:05:19;;;;;;;8.07;5.18;;;12.60;99.90;;;;;;5097622;28;20094;-74
2022/10/01 05:07:45;;;;;;;5.05;3.80;;;12.70;99.90;;;;;;5097885;28;20044;-73
2022/10/01 05:10:13;;;;;;;7.03;3.97;;;12.60;99.90;;;;;;5097431;28;20040;-74
2022/10/01 05:12:40;;;;;;;5.30;4.15;;;12.70;99.90;;;;;;5097081;28;20439;-74
2022/10/01 05:15:06;;;;;;;10.50;6.32;;;12.90;99.90;;;;;;5096779;28;20051;-74
2022/10/01 05:17:33;;;;;;;11.18;5.78;;;13.00;99.90;;;;;;5097682;28;20421;-74
2022/10/01 05:19:59;;;;;;;10.52;6.30;;;13.00;99.90;;;;;;5079741;28;20075;-74
2022/10/01 05:22:25;;;;;;;8.85;6.03;;;13.00;99.90;;;;;;5097519;28;20048;-74
2022/10/01 05:24:50;;;;;;;9.50;6.60;;;12.90;99.90;;;;;;5096816;28;20043;-74
2022/10/01 05:27:17;;;;;;;5.25;4.40;;;12.90;99.90;;;;;;5097266;28;20036;-74
2022/10/01 05:29:43;;;;;;;8.13;5.07;;;12.90;99.90;;;;;;5096400;28;20340;-74
2022/10/01 05:32:09;;;;;;;6.15;4.43;;;12.90;99.90;;;;;;5097761;28;20036;-74
2022/10/01 05:34:35;;;;;;;10.20;7.00;;;12.90;99.90;;;;;;5097335;28;20044;-74
2022/10/01 05:37:01;;;;;;;13.10;7.97;;;12.90;99.90;;;;;;5097346;28;20340;-74
2022/10/01 05:39:28;;;;;;;7.00;5.63;;;13.00;99.90;;;;;;5097618;28;20047;-74
2022/10/01 05:41:55;;;;;;;10.60;7.10;;;13.10;99.90;;;;;;5096363;28;20361;-74
2022/10/01 05:44:24;;;;;;;10.90;6.22;;;13.20;99.90;;;;;;5096229;28;20048;-74
2022/10/01 05:46:51;;;;;;;10.43;6.20;;;13.10;99.90;;;;;;5096978;28;20055;-74
2022/10/01 05:49:17;;;;;;;12.18;8.05;;;13.20;99.90;;;;;;5097159;28;20123;-74
2022/10/01 05:51:45;;;;;;;13.23;7.18;;;13.20;99.90;;;;;;5097417;28;20083;-74
2022/10/01 05:54:12;;;;;;;9.07;7.15;;;13.20;99.90;;;;;;5097126;28;20044;-74
2022/10/01 05:56:38;;;;;;;13.98;8.50;;;13.20;99.90;;;;;;5097104;28;20040;-74
2022/10/01 05:59:04;;;;;;;17.15;9.05;;;13.20;99.90;;;;;;5095980;28;20040;-74
2022/10/01 06:01:31;;;;;;;13.80;7.80;;;13.20;99.90;;;;;;5078953;28;20047;-74
2022/10/01 06:03:57;;;;;;;9.75;7.68;;;13.30;99.90;;;;;;5096533;28;20433;-74
2022/10/01 06:06:24;;;;;;;18.00;11.40;;;13.20;99.90;;;;;;5095894;28;20046;-74
2022/10/01 06:08:50;;;;;;;16.23;10.70;;;13.20;99.90;;;;;;5097183;28;20204;-74
2022/10/01 06:11:16;;;;;;;17.92;12.32;;;13.40;99.90;;;;;;5097120;28;20085;-74
2022/10/01 06:13:44;;;;;;;23.30;12.50;;;13.40;99.90;;;;;;5095751;28;20115;-74
2022/10/01 06:16:13;;;;;;;13.05;7.32;;;13.40;99.90;;;;;;5062491;28;20089;-74
2022/10/01 06:18:40;;;;;;;18.42;11.70;;;13.50;99.90;;;;;;5096727;28;20349;-74
2022/10/01 06:21:07;;;;;;;16.77;11.20;;;13.50;99.90;;;;;;5095907;28;20044;-74
2022/10/01 06:23:33;;;;;;;23.38;11.55;;;13.50;99.90;;;;;;5095662;28;20345;-74
2022/10/01 06:26:00;;;;;;;13.68;7.13;;;13.60;99.90;;;;;;5095895;28;20052;-74
2022/10/01 06:28:26;;;;;;;22.52;13.68;;;13.50;99.90;;;;;;5096664;28;20040;-74
2022/10/01 06:30:52;;;;;;;17.40;9.95;;;13.60;99.90;;;;;;5095566;28;20062;-74
2022/10/01 06:33:18;;;;;;;24.33;13.02;;;13.60;99.90;;;;;;5095560;28;20040;-75
2022/10/01 06:35:48;;;;;;;21.60;12.45;;;13.60;99.90;;;;;;5096475;28;20086;-74
2022/10/01 06:38:15;;;;;;;30.67;15.98;;;13.60;99.90;;;;;;5097668;28;20476;-74
2022/10/01 06:40:41;;;;;;;31.25;14.55;;;13.70;99.90;;;;;;5099734;28;20047;-74
2022/10/01 06:43:08;;;;;;;16.13;11.82;;;13.60;99.90;;;;;;5100693;28;20040;-74
2022/10/01 06:45:39;;;;;;;20.17;11.73;;;13.60;99.90;;;;;;5100985;28;20363;-74
2022/10/01 06:48:05;;;;;;;33.17;16.85;;;13.70;99.90;;;;;;5099514;28;20079;-74
2022/10/01 06:50:32;;;;;;;36.38;17.23;;;13.80;99.90;;;;;;5100584;28;20119;-74
2022/10/01 06:52:58;;;;;;;21.92;13.35;;;14.00;99.90;;;;;;5100846;28;20117;-74
2022/10/01 06:55:27;;;;;;;23.17;14.73;;;13.90;99.90;;;;;;5100817;28;20068;-75
2022/10/01 06:57:58;;;;;;;30.45;18.42;;;14.00;99.90;;;;;;5100508;28;20053;-73
2022/10/01 07:00:25;;;;;;;33.75;16.95;;;14.10;99.90;;;;;;5082521;28;20417;-74
2022/10/01 07:02:51;;;;;;;25.88;17.55;;;14.00;99.90;;;;;;5099487;28;20047;-74
2022/10/01 07:05:17;;;;;;;34.35;18.65;;;14.10;99.90;;;;;;5100210;28;20036;-74
2022/10/01 07:07:43;;;;;;;22.80;16.20;;;14.20;99.90;;;;;;5100542;28;20421;-74
2022/10/01 07:10:10;;;;;;;31.27;17.73;;;14.30;99.90;;;;;;5099201;28;20044;-74
2022/10/01 07:12:37;;;;;;;23.80;17.30;;;14.40;99.90;;;;;;5100468;28;20040;-74
2022/10/01 07:15:04;;;;;;;39.85;20.45;;;14.40;99.90;;;;;;5099352;28;20047;-74
2022/10/01 07:17:31;;;;;;;37.00;20.00;;;14.50;99.90;;;;;;5099257;28;20336;-75
2022/10/01 07:19:57;;;;;;;36.70;20.33;;;14.60;99.90;;;;;;5099024;28;20051;-74
2022/10/01 07:22:23;;;;;;;25.23;15.80;;;14.60;99.90;;;;;;5099224;28;20036;-74
2022/10/01 07:24:50;;;;;;;43.05;20.65;;;14.60;99.90;;;;;;5100205;28;20040;-74
2022/10/01 07:27:17;;;;;;;29.02;19.02;;;14.60;99.90;;;;;;5100186;28;20047;-75
2022/10/01 07:29:43;;;;;;;38.67;20.85;;;14.60;99.90;;;;;;5100122;28;20093;-75
2022/10/01 07:32:09;;;;;;;33.95;20.27;;;14.70;99.90;;;;;;5100036;28;20036;-75
2022/10/01 07:34:39;;;;;;;29.92;18.60;;;14.70;99.90;;;;;;5098324;28;20044;-71
2022/10/01 07:37:05;;;;;;;34.03;18.77;;;14.60;99.90;;;;;;5099744;28;20476;-71
2022/10/01 07:39:31;;;;;;;30.10;18.50;;;14.60;99.90;;;;;;5099946;28;20043;-72
2022/10/01 07:41:57;;;;;;;33.88;16.45;;;14.60;99.90;;;;;;5099833;28;20078;-72
2022/10/01 07:44:25;;;;;;;29.88;18.08;;;14.70;99.90;;;;;;5098901;28;20057;-72
2022/10/01 07:46:51;;;;;;;25.88;15.48;;;14.80;99.90;;;;;;5098306;28;20048;-72
2022/10/01 07:49:16;;;;;;;25.92;14.38;;;14.70;99.90;;;;;;5097911;28;20055;-72
2022/10/01 07:51:42;;;;;;;28.08;14.38;;;14.50;99.90;;;;;;5099361;28;20048;-73
2022/10/01 07:54:08;;;;;;;25.08;12.10;;;14.50;99.90;;;;;;5102435;28;20065;-71
2022/10/01 07:56:34;;;;;;;26.02;11.30;;;14.50;99.90;;;;;;5115719;28;20035;-71
2022/10/01 07:59:01;;;;;;;27.27;11.75;;;14.50;99.90;;;;;;5102871;28;20096;-72
2022/10/01 08:01:27;;;;;;;26.58;11.63;;;14.60;99.90;;;;;;5109811;28;20047;-72
2022/10/01 08:03:53;;;;;;;15.80;8.98;;;14.70;99.90;;;;;;5148053;27;20075;-71
2022/10/01 08:06:20;;;;;;;23.05;9.88;;;14.70;99.90;;;;;;5104999;28;20070;-73
2022/10/01 08:08:46;;;;;;;23.50;10.73;;;14.80;99.90;;;;;;5117877;28;20032;-78
2022/10/01 08:11:16;;;;;;;20.48;10.32;;;14.90;99.90;;;;;;5118387;28;20035;-74
2022/10/01 08:13:44;;;;;;;17.08;8.82;;;15.00;99.90;;;;;;5118694;27;20092;-70
2022/10/01 08:16:11;;;;;;;21.92;9.38;;;15.10;99.90;;;;;;5119338;28;20541;-71
2022/10/01 08:18:38;;;;;;;20.38;8.68;;;15.30;99.90;;;;;;5119602;28;20032;-71
2022/10/01 08:21:05;;;;;;;19.73;8.35;;;15.40;99.90;;;;;;5117444;28;20040;-70
2022/10/01 08:23:33;;;;;;;17.55;6.60;;;15.20;99.90;;;;;;5119404;28;20333;-69
2022/10/01 08:26:00;;;;;;;12.43;6.25;;;15.30;99.90;;;;;;5119452;28;20035;-71
2022/10/01 08:28:26;;;;;;;20.55;6.55;;;15.30;99.90;;;;;;5119458;28;20388;-71
2022/10/01 08:30:52;;;;;;;13.13;5.53;;;15.40;99.90;;;;;;5111618;28;20032;-70
2022/10/01 08:33:17;;;;;;;13.40;4.55;;;15.40;99.90;;;;;;5098769;28;20044;-70
2022/10/01 08:35:43;;;;;;;11.85;3.90;;;15.50;99.90;;;;;;5131086;27;20169;-71
2022/10/01 08:38:10;;;;;;;11.05;3.45;;;15.60;99.90;;;;;;5098653;28;20122;-70
2022/10/01 08:40:44;;;;;;;11.80;3.28;;;15.50;99.90;;;;;;5098714;28;20073;-71
2022/10/01 08:43:33;;;;;;;9.57;3.20;;;15.60;99.90;;;;;;5098314;28;20445;-71
2022/10/01 08:46:03;;;;;;;14.20;3.40;;;15.60;99.90;;;;;;5096867;28;20051;-71
2022/10/01 08:48:42;;;;;;;13.02;3.28;;;15.50;99.90;;;;;;5098127;28;20186;-71
2022/10/01 08:51:15;;;;;;;16.92;3.13;;;15.60;99.90;;;;;;5098200;28;20420;-72
2022/10/01 08:54:14;;;;;;;10.80;2.67;;;15.60;99.90;;;;;;5113306;28;20439;-71
2022/10/01 08:56:45;;;;;;;14.73;2.50;;;15.70;99.90;;;;;;5114747;28;20154;-71
2022/10/01 08:59:16;;;;;;;12.32;2.28;;;15.90;99.90;;;;;;5118863;28;20039;-71
2022/10/01 09:01:42;;;;;;;12.93;2.40;;;16.00;99.90;;;;;;5117719;28;20039;-71
2022/10/01 09:04:07;;;;;;;15.90;2.30;;;15.90;99.90;;;;;;5118324;27;20046;-71
2022/10/01 09:06:33;;;;;;;21.23;2.50;;;16.20;99.90;;;;;;5117573;28;20030;-71
2022/10/01 09:09:23;;;;;;;18.52;2.55;;;16.30;99.90;;;;;;5118624;28;20443;-71
2022/10/01 09:12:07;;;;;;;15.45;2.55;;;16.40;99.90;;;;;;5118530;28;20043;-71
2022/10/01 09:14:54;;;;;;;12.48;2.40;;;16.40;99.90;;;;;;5118500;28;20043;-71
2022/10/01 09:17:50;;;;;;;12.98;2.42;;;16.40;99.90;;;;;;5118461;28;20329;-71
2022/10/01 09:20:22;;;;;;;14.90;2.63;;;16.50;99.90;;;;;;5108201;28;20528;-71
2022/10/01 09:23:11;;;;;;;16.65;2.92;;;16.40;99.90;;;;;;5107546;28;20051;-69
2022/10/01 09:25:38;;;;;;;19.58;2.13;;;16.10;99.90;;;;;;5118141;28;20032;-71
2022/10/01 09:28:14;;;;;;;20.50;3.22;;;15.90;99.90;;;;;;5117982;28;20084;-69
2022/10/01 09:30:41;;;;;;;;;;;15.90;99.90;;;;;;5118676;28;20032;-69
2022/10/01 09:33:17;;;;;;;10.20;2.30;;;16.10;99.90;;;;;;5118178;28;20401;-69
2022/10/01 09:36:09;;;;;;;13.35;2.75;;;16.40;99.90;;;;;;5116756;28;20110;-69
2022/10/01 09:38:40;;;;;;;15.25;2.03;;;16.40;99.90;;;;;;5117032;28;20413;-69
2022/10/01 09:41:08;;;;;;;18.38;2.10;;;16.20;99.90;;;;;;5116676;28;20386;-69
2022/10/01 09:43:37;;;;;;;13.23;2.38;;;16.10;99.90;;;;;;5117889;28;20093;-69
2022/10/01 09:46:05;;;;;;;19.17;2.42;;;16.10;99.90;;;;;;5117864;28;20035;-70
2022/10/01 09:49:13;;;;;;;20.95;2.50;;;16.30;99.90;;;;;;5117859;28;20163;-70
2022/10/01 09:51:47;;;;;;;12.73;2.08;;;16.50;99.90;;;;;;5116740;28;20459;-69
2022/10/01 09:54:31;;;;;;;8.98;1.50;;;16.80;99.90;;;;;;5117484;28;20050;-70
2022/10/01 09:57:11;;;;;;;8.88;1.30;;;16.80;99.90;;;;;;5117790;28;20078;-69
2022/10/01 10:00:00;;;;;;;14.68;2.05;;;16.80;99.90;;;;;;5117429;28;20429;-70
2022/10/01 10:02:31;;;;;;;8.32;1.10;;;16.60;99.90;;;;;;5117590;28;20088;-70
2022/10/01 10:05:00;;;;;;;10.82;1.25;;;16.50;99.90;;;;;;5117266;28;20097;-70
2022/10/01 10:07:28;;;;;;;12.20;1.65;;;16.40;99.90;;;;;;5117599;28;20043;-69
2022/10/01 10:09:54;;;;;;;9.32;1.70;;;16.10;99.90;;;;;;5117531;28;20050;-69
2022/10/01 10:12:30;;;;;;;7.03;1.30;;;15.90;99.90;;;;;;5117214;28;20321;-70
2022/10/01 10:15:08;;;;;;;12.45;2.00;;;15.80;99.90;;;;;;5114099;28;20088;-69
2022/10/01 10:17:36;;;;;;;7.00;0.93;;;15.70;99.90;;;;;;5115700;28;20320;-71
2022/10/01 10:20:10;;;;;;;10.73;1.50;;;15.80;99.90;;;;;;5101638;28;20076;-70
2022/10/01 10:22:36;;;;;;;11.57;1.90;;;15.70;99.90;;;;;;5096695;28;20070;-71
2022/10/01 10:25:18;;;;;;;10.98;1.58;;;15.60;99.90;;;;;;5096987;28;20036;-71
2022/10/01 10:27:54;;;;;;;4.95;0.63;;;14.90;99.90;;;;;;5102963;28;20036;-71
2022/10/01 10:30:23;;;;;;;3.13;0.77;;;14.10;99.90;;;;;;5117057;28;20093;-71
2022/10/01 10:32:50;;;;;;;6.40;0.77;;;13.70;99.90;;;;;;5116244;28;20126;-71
2022/10/01 10:35:25;;;;;;;2.88;0.35;;;13.30;99.90;;;;;;5116879;28;20043;-71
2022/10/01 10:37:53;;;;;;;4.13;0.50;;;13.20;99.90;;;;;;5117275;28;20031;-71
2022/10/01 10:40:24;;;;;;;3.80;0.52;;;13.30;99.90;;;;;;5117211;28;20069;-71
2022/10/01 10:42:55;;;;;;;5.00;1.38;;;13.30;99.90;;;;;;5116847;28;20444;-71
2022/10/01 10:45:29;;;;;;;5.25;0.77;;;13.50;99.90;;;;;;5117184;28;20089;-71
2022/10/01 10:47:56;;;;;;;2.17;0.40;;;13.80;99.90;;;;;;5108280;28;20048;-74
2022/10/01 10:50:31;;;;;;;5.07;1.00;;;14.30;99.90;;;;;;5096717;28;20104;-74
2022/10/01 10:52:58;;;;;;;3.85;0.60;;;14.80;99.90;;;;;;5096799;28;20051;-75
2022/10/01 10:55:30;;;;;;;3.95;0.60;;;14.90;99.90;;;;;;5096727;28;20173;-75
2022/10/01 10:58:17;;;;;;;41.58;5.20;;;15.20;99.90;;;;;;5096644;28;20043;-73
2022/10/01 11:00:49;;;;;;;10.32;1.48;;;15.50;99.90;;;;;;5106727;28;20036;-83
2022/10/01 11:03:19;;;;;;;8.82;1.10;;;15.50;99.90;;;;;;5096233;28;20101;-83
2022/10/01 11:05:45;;;;;;;11.00;1.13;;;15.30;99.90;;;;;;5095433;28;20094;-82
2022/10/01 11:08:17;;;;;;;18.98;2.28;;;14.90;99.90;;;;;;5129399;28;20040;-84
2022/10/01 11:10:50;;;;;;;4.65;0.77;;;14.90;99.90;;;;;;5097308;28;20040;-84
2022/10/01 11:13:33;;;;;;;7.07;0.80;;;14.90;99.90;;;;;;5116592;28;20047;-85
2022/10/01 11:16:01;;;;;;;6.78;1.00;;;14.60;99.90;;;;;;5115965;28;20048;-84
2022/10/01 11:18:57;;;;;;;6.97;1.10;;;14.60;99.90;;;;;;5149986;27;20050;-85
2022/10/01 11:21:46;;;;;;;9.23;1.10;;;14.70;99.90;;;;;;5098657;28;20043;-86
2022/10/01 11:24:31;;;;;;;8.82;1.75;;;14.80;99.90;;;;;;5114814;28;20068;-84
2022/10/01 11:27:28;;;;;;;6.57;1.15;;;14.70;99.90;;;;;;5098699;28;20035;-86
2022/10/01 11:30:00;;;;;;;51.65;3.42;;;14.70;99.90;;;;;;5132955;27;20093;-81
2022/10/01 11:32:40;;;;;;;12.75;1.42;;;14.90;99.90;;;;;;5099310;28;20048;-70
2022/10/01 11:35:20;;;;;;;6.97;0.90;;;15.10;99.90;;;;;;5100190;28;20043;-74
2022/10/01 11:37:59;;;;;;;7.80;1.58;;;15.70;99.90;;;;;;5100057;28;20036;-72
2022/10/01 11:40:37;;;;;;;6.75;1.33;;;16.00;99.90;;;;;;5119885;28;20473;-72
2022/10/01 11:43:18;;;;;;;11.55;1.38;;;16.20;99.90;;;;;;5119717;28;20351;-72
2022/10/01 11:45:48;;;;;;;8.00;1.10;;;16.40;99.90;;;;;;5120018;28;20442;-72
2022/10/01 11:48:24;;;;;;;7.20;1.10;;;16.60;99.90;;;;;;5119823;28;20051;-72
2022/10/01 11:50:52;;;;;;;18.80;2.22;;;16.90;99.90;;;;;;5120655;28;20079;-81
2022/10/01 11:53:29;;;;;;;5.75;0.95;;;16.90;99.90;;;;;;5101794;28;20100;-82
2022/10/01 11:59:21;;;;;;;8.95;1.60;;;17.00;99.90;;;;;;5122411;28;20066;-80
2022/10/01 12:02:13;;;;;;;14.20;1.60;;;17.00;99.90;;;;;;5118569;28;20043;-76
2022/10/01 12:04:45;;;;;;;8.45;1.77;;;17.00;99.90;;;;;;5118290;28;20118;-80
2022/10/01 12:07:19;;;;;;;12.82;1.70;;;16.70;99.90;;;;;;5118543;28;20039;-80
2022/10/01 12:10:02;;;;;;;10.52;1.73;;;16.60;99.90;;;;;;5118720;28;20367;-79
2022/10/01 12:12:41;;;;;;;15.45;1.60;;;16.50;99.90;;;;;;5118757;28;20099;-80
2022/10/01 12:15:41;;;;;;;8.25;1.40;;;16.30;99.90;;;;;;5119906;28;20306;-87
2022/10/01 12:18:57;;;;;;;11.13;1.17;;;16.10;99.90;;;;;;5033577;28;20344;-83
2022/10/01 12:21:26;;;;;;;16.70;1.60;;;16.00;99.90;;;;;;5036721;28;20072;-75
2022/10/01 12:24:10;;;;;;;11.50;1.42;;;16.00;99.90;;;;;;5112589;28;20424;-79
2022/10/01 12:26:47;;;;;;;10.07;1.27;;;16.00;99.90;;;;;;5119520;28;20036;-81
2022/10/01 12:29:22;;;;;;;14.18;2.05;;;16.00;99.90;;;;;;5119111;28;20424;-77
2022/10/01 12:31:57;;;;;;;14.93;1.75;;;16.20;99.90;;;;;;5119482;28;20316;-77
2022/10/01 12:34:32;;;;;;;10.45;1.02;;;16.70;99.90;;;;;;5118953;28;20040;-82
2022/10/01 12:37:06;;;;;;;6.50;0.95;;;16.90;99.90;;;;;;5117943;28;20035;-82
2022/10/01 12:39:56;;;;;;;10.13;1.63;;;16.80;99.90;;;;;;5118191;28;20047;-72
2022/10/01 12:42:51;;;;;;;15.18;1.80;;;17.00;99.90;;;;;;5119058;28;20040;-72
2022/10/01 12:45:46;;;;;;;11.32;1.35;;;17.30;99.90;;;;;;5119154;28;20081;-72
2022/10/01 12:48:15;;;;;;;9.13;1.27;;;17.30;99.90;;;;;;5118611;28;20321;-72
2022/10/01 12:50:46;;;;;;;9.15;1.20;;;17.30;99.90;;;;;;5118999;28;20083;-71
2022/10/01 12:53:31;;;;;;;15.45;1.40;;;17.70;99.90;;;;;;5118985;28;20067;-72
2022/10/01 12:56:06;;;;;;;12.35;1.35;;;18.20;99.90;;;;;;5118934;28;20058;-72
2022/10/01 12:58:53;;;;;;;9.05;1.10;;;18.60;99.90;;;;;;5118525;27;20043;-72
2022/10/01 13:01:41;;;;;;;7.75;0.95;;;18.70;99.90;;;;;;5118862;27;20092;-72